Disclaimer

Please do not use the information listed here in-flight or in-navigation, as they are not provided to us by the airports but are provided by volunteers, so they might be outdated.

Search


Regions


Airport information page

Radio informations:
Tower (TWR) - 118.7 MHz
PEREIRA RDO - 3488 MHz
PEREIRA APP - 120.7 MHz

Airport informations:
Latitude: 04° 48' 45.63" N
Longitude: 075° 44' 22.27" W
Elevation: 4416 feet - 1346 meters
Operating hours: Remarks
Operating agency: Civil government, landing fees and diplomatic clearance may be required
Timezone: UTC-5
Fuel: Jet A1, without icing nhibitor.

100/130 MIL Spec, low lead, aviation gasoline (BLUE)

Runway information:
08/26 - 6627 x 148 feet< - >2020 x 45 meters

Recent METARs:
SKPE 211600Z 27004KT 8000 VCFG SCT010 SCT090 23/21 A3015
SKPE 211700Z 26004KT 9999 SCT016 SCT090 24/21 A3011
SKPE 211800Z 29007KT 9999 SCT016 SCT090 23/21 A3009

Airport on the map: